Terminal Aerodrome Forecast
Issued by NWS

Home | Current Version | Previous Version | Graphics & Text | Print | Product List | Glossary On
Versions: 1 2 3 4 5 6 7 8 9 10 11 12 13 14 15
051
FTUS43 KFGF 211738
TAFBJI
TAF
KBJI 211738Z 2118/2218 13009KT P6SM FEW080
     FM212000 14009KT P6SM VCTS SCT090CB
     FM220200 10006KT P6SM VCTS BKN070CB
     FM220300 09006KT P6SM BKN060
     FM220900 15004KT P6SM SCT040
     FM221000 VRB03KT P6SM BKN060
     FM221500 29008KT P6SM BKN040
     FM221700 29012KT P6SM SCT100=

USA.gov is the U.S. government's official web portal to all federal, state and local government web resources and services.